Flight Track Log - Related Links

Times and Time Zones

All times are in EDT time to prevent confusion due to time zone crossing. See the UAL33 flight status page for this flight to view local times or setup timezone preferences in your user account.

Time Position Orientation Groundspeed Altitude Reporting Facility
EDT Latitude Longitude Course Direction KTS MPH feet Rate Location/Type
Thu 04:48:48 AM 35.7006 140.4216 150° Southeast 188 216 2,600  Level FlightAware ADS-B
Thu 04:49:09 AM 35.6844 140.4332 148° Southeast 189 217 3,300 889 Climbing FlightAware ADS-B
Thu 04:49:15 AM 35.6930 140.4270 149° Southeast 192 221 3,000 486 Descending FlightAware ADS-B (ZPPP / KMG)
Thu 04:49:46 AM 35.6679 140.4454 149° Southeast 192 221 3,600 1,833 Climbing FlightAware ADS-B (ZPPP / KMG)
Thu 04:49:51 AM 35.6450 140.4618 150° Southeast 263 303 4,100 1,286 Climbing FlightAware ADS-B
Thu 04:50:00 AM 35.6543 140.4552 149° Southeast 251 289 3,900 977 Descending FlightAware ADS-B (ZPPP / KMG)
Thu 04:50:34 AM 35.6172 140.4816 149° Southeast 293 337 4,800 1,500 Climbing FlightAware ADS-B (ZPPP / KMG)
Thu 04:51:04 AM 35.5789 140.5095 149° Southeast 334 384 5,500 1,600 Climbing FlightAware ADS-B (ZPPP / KMG)
Thu 04:51:19 AM 35.5616 140.5221 149° Southeast 344 396 6,000 4,154 Climbing FlightAware ADS-B (ZPPP / KMG)
Thu 04:51:30 AM 35.5175 140.5538 150° Southeast 357 411 7,300 2,647 Climbing FlightAware ADS-B
Thu 04:51:53 AM 35.5117 140.5578 150° Southeast 357 411 7,500 2,000 Climbing FlightAware ADS-B (ZPPP / KMG)
Thu 04:52:12 AM 35.4846 140.5800 139° Southeast 355 409 8,700 3,091 Climbing FlightAware ADS-B (ZPPP / KMG)
Thu 04:52:26 AM 35.4692 140.5994 133° Southeast 357 411 9,200 2,438 Climbing FlightAware ADS-B (ZPPP / KMG)
Thu 04:52:44 AM 35.4526 140.6331 113° Southeast 364 419 10,000 4,800 Climbing FlightAware ADS-B (ZPPP / KMG)
Thu 04:52:51 AM 35.4446 140.6809 93° East 364 419 11,200 2,800 Climbing FlightAware ADS-B
Thu 04:53:14 AM 35.4447 140.6933 89° East 365 420 11,400 3,150 Climbing FlightAware ADS-B (ZPPP / KMG)
Thu 04:53:31 AM 35.4475 140.7660 84° East 371 427 13,300 3,120 Climbing FlightAware ADS-B
Thu 04:54:04 AM 35.4510 140.7967 81° East 377 434 14,000 2,308 Climbing FlightAware ADS-B (ZPPP / KMG)
Thu 04:54:10 AM 35.4574 140.8487 82° East 377 434 14,800 1,500 Climbing FlightAware ADS-B
Thu 04:54:44 AM 35.4617 140.8813 80° East 380 437 15,000 293 Climbing FlightAware ADS-B (ZPPP / KMG)
Thu 04:54:51 AM 35.4689 140.9343 80° East 382 440 15,000  Level FlightAware ADS-B
Thu 04:55:25 AM 35.4726 140.9612 80° East 382 440 15,000 150 Level FlightAware ADS-B (ZPPP / KMG)
Thu 04:55:31 AM 35.4807 141.0197 80° East 383 441 15,100 2,217 Climbing FlightAware ADS-B
Thu 04:56:11 AM 35.4862 141.1069 97° East 396 456 16,700 2,400 Climbing FlightAware ADS-B
Thu 04:56:31 AM 35.4763 141.1510 110° East 402 463 17,500 2,175 Climbing FlightAware ADS-B
Thu 04:57:31 AM 35.4358 141.2829 110° East 425 489 19,600 2,150 Climbing FlightAware ADS-B
Thu 04:58:31 AM 35.4037 141.4262 94° East 441 507 21,800 2,021 Climbing FlightAware ADS-B
Thu 04:59:06 AM 35.4021 141.5123 90° East 455 524 22,800 1,596 Climbing FlightAware ADS-B
Thu 05:00:05 AM 35.3995 141.6650 90° East 476 548 24,300 1,664 Climbing FlightAware ADS-B
Thu 05:01:05 AM 35.3966 141.8320 91° East 493 567 26,100 1,471 Climbing FlightAware ADS-B
Thu 05:02:40 AM 35.3908 142.1060 91° East 527 606 28,100 1,236 Climbing FlightAware ADS-B
Thu 05:03:00 AM 35.5543 142.1279 57° Northeast  Level Estimated
Thu 05:03:50 AM 35.3867 142.3152 91° East 530 610 29,500  Level FlightAware ADS-B
Thu 05:05:41 AM 35.3791 142.6657 91° East 530 610 31,500 67 Climbing FlightAware ADS-B
Thu 05:06:00 AM 35.5638 142.6507 57° Northeast  Level Estimated
Thu 05:08:00 AM 35.5676 143.0251 57° Northeast  Level Estimated
Thu 05:09:00 AM 35.6486 143.1808 57° Northeast  Level Estimated
Thu 05:10:00 AM 35.7294 143.3368 57° Northeast  Level Estimated
Thu 05:11:00 AM 35.8101 143.4931 58° Northeast  Level Estimated
Thu 05:12:00 AM 35.8905 143.6497 58° Northeast  Level Estimated
Thu 05:13:00 AM 35.9707 143.8066 58° Northeast  Level Estimated
Thu 05:14:00 AM 36.0507 143.9639 58° Northeast  Level Estimated
Thu 05:15:00 AM 36.1305 144.1215 58° Northeast  Level Estimated
Thu 05:16:00 AM 36.2101 144.2794 58° Northeast  Level Estimated
Thu 05:17:00 AM 36.2895 144.4376 58° Northeast  Level Estimated
Thu 05:18:00 AM 36.3686 144.5961 58° Northeast  Level Estimated
Thu 05:19:00 AM 36.4476 144.7550 58° Northeast  Level Estimated
Thu 05:20:00 AM 36.5264 144.9142 58° Northeast  Level Estimated
Thu 05:21:00 AM 36.6048 145.0733 58° Northeast  Level Estimated
Thu 05:22:00 AM 36.6829 145.2329 59° Northeast  Level Estimated
Thu 05:23:00 AM 36.7609 145.3927 59° Northeast  Level Estimated
Thu 05:24:00 AM 36.8387 145.5529 59° Northeast  Level Estimated
Thu 05:25:00 AM 36.9164 145.7137 59° Northeast  Level Estimated
Thu 05:26:00 AM 36.9938 145.8748 59° Northeast  Level Estimated
Thu 05:27:00 AM 37.0711 146.0363 59° Northeast  Level Estimated
Thu 05:28:00 AM 37.1481 146.1981 59° Northeast  Level Estimated
Thu 05:29:00 AM 37.2249 146.3602 59° Northeast  Level Estimated
Thu 05:30:00 AM 37.3015 146.5227 59° Northeast  Level Estimated
Thu 05:31:00 AM 37.3779 146.6855 59° Northeast  Level Estimated
Thu 05:32:00 AM 37.4540 146.8486 60° Northeast  Level Estimated
Thu 05:33:00 AM 37.5299 147.0120 60° Northeast  Level Estimated
Thu 05:34:00 AM 37.6056 147.1758 60° Northeast  Level Estimated
Thu 05:35:00 AM 37.6811 147.3399 60° Northeast  Level Estimated
Thu 05:36:00 AM 37.7564 147.5044 60° Northeast  Level Estimated
Thu 05:37:00 AM 37.8314 147.6691 60° Northeast  Level Estimated
Thu 05:38:00 AM 37.9061 147.8342 60° Northeast  Level Estimated
Thu 05:39:00 AM 37.9807 147.9997 60° Northeast  Level Estimated
Thu 05:40:00 AM 38.0550 148.1655 60° Northeast  Level Estimated
Thu 05:41:00 AM 38.1291 148.3316 60° Northeast  Level Estimated
Thu 05:42:00 AM 38.2029 148.4981 61° Northeast  Level Estimated
Thu 05:43:00 AM 38.2766 148.6649 61° Northeast  Level Estimated
Thu 05:44:00 AM 38.3499 148.8320 61° Northeast  Level Estimated
Thu 05:45:00 AM 38.4231 148.9995 61° Northeast  Level Estimated
Thu 05:46:00 AM 38.4960 149.1673 61° Northeast  Level Estimated
Thu 05:47:00 AM 38.5686 149.3354 61° Northeast  Level Estimated
Thu 05:48:00 AM 38.6411 149.5039 61° Northeast  Level Estimated
Thu 05:49:00 AM 38.7132 149.6727 61° Northeast  Level Estimated
Thu 05:50:00 AM 38.7852 149.8419 61° Northeast  Level Estimated
Thu 05:51:00 AM 38.8569 150.0114 61° Northeast  Level Estimated
Thu 05:52:00 AM 38.9283 150.1813 62° Northeast  Level Estimated
Thu 05:53:00 AM 38.9995 150.3515 62° Northeast  Level Estimated
Thu 05:54:00 AM 39.0704 150.5220 62° Northeast  Level Estimated
Thu 05:55:00 AM 39.1412 150.6929 62° Northeast  Level Estimated
Thu 05:56:00 AM 39.2116 150.8641 62° Northeast  Level Estimated
Thu 05:57:00 AM 39.2818 151.0357 62° Northeast  Level Estimated
Thu 05:58:00 AM 39.3518 151.2076 62° Northeast  Level Estimated
Thu 05:59:00 AM 39.4215 151.3799 62° Northeast  Level Estimated
Thu 06:00:00 AM 39.4909 151.5525 62° Northeast  Level Estimated
Thu 06:01:00 AM 39.5601 151.7254 63° Northeast  Level Estimated
Thu 06:02:00 AM 39.6290 151.8987 63° Northeast  Level Estimated
Thu 06:03:00 AM 39.6977 152.0723 63° Northeast  Level Estimated
Thu 06:04:00 AM 39.7661 152.2463 63° Northeast  Level Estimated
Thu 06:05:00 AM 39.8342 152.4206 63° Northeast  Level Estimated
Thu 06:06:00 AM 39.9021 152.5953 63° Northeast  Level Estimated
Thu 06:07:00 AM 39.9697 152.7703 63° Northeast  Level Estimated
Thu 06:08:00 AM 40.0371 152.9457 63° Northeast  Level Estimated
Thu 06:09:00 AM 40.1042 153.1214 63° Northeast  Level Estimated
Thu 06:10:00 AM 40.1710 153.2975 64° Northeast  Level Estimated
Thu 06:11:00 AM 40.2376 153.4738 64° Northeast  Level Estimated
Thu 06:12:00 AM 40.3039 153.6506 64° Northeast  Level Estimated
Thu 06:13:00 AM 40.3699 153.8277 64° Northeast  Level Estimated
Thu 06:14:00 AM 40.4357 154.0051 64° Northeast  Level Estimated
Thu 06:15:00 AM 40.5012 154.1829 64° Northeast  Level Estimated
Thu 06:16:00 AM 40.5664 154.3611 64° Northeast  Level Estimated
Thu 06:17:00 AM 40.6313 154.5395 64° Northeast  Level Estimated
Thu 06:18:00 AM 40.6960 154.7184 64° Northeast  Level Estimated
Thu 06:19:00 AM 40.7604 154.8975 65° Northeast  Level Estimated
Thu 06:20:00 AM 40.8245 155.0771 65° Northeast  Level Estimated
Thu 06:21:00 AM 40.8883 155.2569 65° Northeast  Level Estimated
Thu 06:22:00 AM 40.9519 155.4371 65° Northeast  Level Estimated
Thu 06:23:00 AM 41.0151 155.6177 65° Northeast  Level Estimated
Thu 06:24:00 AM 41.0781 155.7986 65° Northeast  Level Estimated
Thu 06:25:00 AM 41.1408 155.9798 65° Northeast  Level Estimated
Thu 06:26:00 AM 41.2032 156.1615 65° Northeast  Level Estimated
Thu 06:27:00 AM 41.2654 156.3434 66° East  Level Estimated
Thu 06:28:00 AM 41.3272 156.5257 66° East  Level Estimated
Thu 06:29:00 AM 41.3888 156.7083 66° East  Level Estimated
Thu 06:30:00 AM 41.4500 156.8913 66° East  Level Estimated
Thu 06:31:00 AM 41.5110 157.0746 66° East  Level Estimated
Thu 06:32:00 AM 41.5717 157.2583 66° East  Level Estimated
Thu 06:33:00 AM 41.6321 157.4423 66° East  Level Estimated
Thu 06:34:00 AM 41.6922 157.6267 66° East  Level Estimated
Thu 06:35:00 AM 41.7521 157.8117 66° East  Level Estimated
Thu 06:36:00 AM 41.8117 157.9971 67° East  Level Estimated
Thu 06:37:00 AM 41.8710 158.1829 67° East  Level Estimated
Thu 06:38:00 AM 41.9300 158.3690 67° East  Level Estimated
Thu 06:39:00 AM 41.9888 158.5554 67° East  Level Estimated
Thu 06:40:00 AM 42.0472 158.7422 67° East  Level Estimated
Thu 06:41:00 AM 42.1053 158.9293 67° East  Level Estimated
Thu 06:42:00 AM 42.1631 159.1167 67° East  Level Estimated
Thu 06:43:00 AM 42.2206 159.3046 67° East  Level Estimated
Thu 06:44:00 AM 42.2778 159.4927 68° East  Level Estimated
Thu 06:45:00 AM 42.3347 159.6812 68° East  Level Estimated
Thu 06:46:00 AM 42.3913 159.8700 68° East  Level Estimated
Thu 06:47:00 AM 42.4476 160.0592 68° East  Level Estimated
Thu 06:48:00 AM 42.5035 160.2487 68° East  Level Estimated
Thu 06:49:00 AM 42.5592 160.4385 68° East  Level Estimated
Thu 06:50:00 AM 42.6145 160.6287 68° East  Level Estimated
Thu 06:51:00 AM 42.6695 160.8192 69° East  Level Estimated
Thu 06:52:00 AM 42.7242 161.0101 69° East  Level Estimated
Thu 06:53:00 AM 42.7786 161.2013 69° East  Level Estimated
Thu 06:54:00 AM 42.8326 161.3928 69° East  Level Estimated
Thu 06:55:00 AM 42.8864 161.5847 69° East  Level Estimated
Thu 06:56:00 AM 42.9398 161.7769 69° East  Level Estimated
Thu 06:57:00 AM 42.9929 161.9694 69° East  Level Estimated
Thu 06:58:00 AM 43.0457 162.1622 69° East  Level Estimated
Thu 06:59:00 AM 43.0981 162.3554 70° East  Level Estimated
Thu 07:00:00 AM 43.1503 162.5490 70° East  Level Estimated
Thu 07:01:00 AM 43.2021 162.7428 70° East  Level Estimated
Thu 07:02:00 AM 43.2535 162.9370 70° East  Level Estimated
Thu 07:03:00 AM 43.3047 163.1315 70° East  Level Estimated
Thu 07:04:00 AM 43.3555 163.3263 70° East  Level Estimated
Thu 07:05:00 AM 43.4060 163.5215 70° East  Level Estimated
Thu 07:06:00 AM 43.4561 163.7170 70° East  Level Estimated
Thu 07:07:00 AM 43.5059 163.9128 71° East  Level Estimated
Thu 07:08:00 AM 43.5554 164.1089 71° East  Level Estimated
Thu 07:09:00 AM 43.6046 164.3053 71° East  Level Estimated
Thu 07:10:00 AM 43.6534 164.5021 71° East  Level Estimated
Thu 07:10:50 AM 38.3333 167.4500 71° East 630 725 38,000  Level Oakland Oceanic (ODAPS)
Thu 07:23:13 AM 39.0000 170.0000 65° Northeast 634 730 38,000  Level Oakland Oceanic (ODAPS)
Thu 07:24:43 AM 39.1333 170.3833 65° Northeast 634 730 38,000  Level Oakland Oceanic (ODAPS)
Thu 07:38:34 AM 40.1167 173.3000 67° East 639 735 38,000  Level Oakland Oceanic (ODAPS)
Thu 07:52:27 AM 41.0333 176.3167 69° East 640 736 38,000  Level Oakland Oceanic (ODAPS)
Thu 08:06:19 AM 41.8500 179.3833 72° East 634 730 38,000  Level Oakland Oceanic (ODAPS)
Thu 08:09:06 AM 42.0000 180.0000 71° East 621 715 38,000  Level Oakland Oceanic (ODAPS)
Thu 08:20:10 AM 42.6000 -177.5167 73° East 609 701 38,000  Level Oakland Oceanic (ODAPS)
Thu 08:34:03 AM 43.2500 -174.3833 75° East 611 703 38,000  Level Oakland Oceanic (ODAPS)
Thu 08:47:54 AM 43.8000 -171.2667 77° East 607 699 38,000  Level Oakland Oceanic (ODAPS)
Thu 08:53:28 AM 44.0000 -170.0000 87° East 597 687 38,000  Level Oakland Oceanic (ODAPS)
Thu 09:01:47 AM 44.0667 -168.0833 88° East 598 688 38,000  Level Oakland Oceanic (ODAPS)
Thu 09:15:38 AM 44.1167 -164.8167 90° East 604 695 38,000  Level Oakland Oceanic (ODAPS)
Thu 09:29:30 AM 44.0667 -161.6167 93° East 592 681 38,000  Level Oakland Oceanic (ODAPS)
Thu 09:36:37 AM 44.0000 -160.0000 102° East 590 679 38,000  Level Oakland Oceanic (ODAPS)
Thu 09:43:22 AM 43.7667 -158.5000 103° East 581 669 38,000  Level Oakland Oceanic (ODAPS)
Thu 09:57:15 AM 43.2333 -155.5167 105° East 576 663 38,000  Level Oakland Oceanic (ODAPS)
Thu 10:11:07 AM 42.6333 -152.6500 107° East 562 647 38,000  Level Oakland Oceanic (ODAPS)
Thu 10:24:22 AM 42.0000 -150.0000 102° East 566 651 38,000  Level Oakland Oceanic (ODAPS)
Thu 10:24:58 AM 41.9833 -149.8667 102° East 566 651 38,000  Level Oakland Oceanic (ODAPS)
Thu 10:29:00 AM 41.8500 -149.0500 102° East 567 652 38,000  Level Oakland Oceanic (ODAPS)
Thu 10:38:50 AM 41.5167 -147.0500 104° East 564 649 38,000  Level Oakland Oceanic (ODAPS)
Thu 10:47:20 AM 41.1833 -145.3167 105° East 577 664 38,000  Level Oakland Oceanic (ODAPS)
Thu 10:49:12 AM 41.1167 -144.9500 105° East 577 664 38,000  Level Oakland Oceanic (ODAPS)
Thu 10:52:43 AM 40.9667 -144.2333 105° East 569 655 38,000  Level Oakland Oceanic (ODAPS)
Thu 11:06:35 AM 40.3667 -141.4833 107° East 563 648 38,000  Level Oakland Oceanic (ODAPS)
Thu 11:14:15 AM 40.0000 -140.0000 94° East 563 648 38,000  Level Oakland Oceanic (ODAPS)
Thu 11:20:28 AM 39.9167 -138.7667 95° East 562 647 38,000  Level Oakland Oceanic (ODAPS)
Thu 11:34:19 AM 39.7000 -135.9833 97° East 563 648 38,000  Level Oakland Oceanic (ODAPS)
Thu 11:48:11 AM 39.4167 -133.2333 98° East 561 646 38,000  Level Oakland Oceanic (ODAPS)
Thu 12:02:03 PM 39.0667 -130.5000 100° East 560 644 38,000  Level Oakland Oceanic (ODAPS)
Thu 12:04:38 PM 39.0000 -130.0000 102° East 558 642 38,000  Level Oakland Oceanic (ODAPS)
Thu 12:09:09 PM 38.8500 -129.1333 102° East 553 636 38,000  Level Oakland Oceanic (ODAPS)
Thu 12:12:14 PM 38.7333 -128.5333 112° Southeast 544 626 38,000  Level Oakland Oceanic (ODAPS)
Thu 12:15:50 PM 38.5333 -127.9000 112° Southeast 539 620 38,000 -21 Level Oakland Oceanic (ODAPS)
Thu 12:17:03 PM 38.4964 -127.6767 113° Southeast 536 617 37,900  Descending Oakland Center
Thu 12:18:00 PM 38.3966 -127.4705 112° Southeast 544 626 38,000  Climbing FlightAware Transoceanic
Thu 12:18:05 PM 38.4347 -127.4981 114° Southeast 539 620 37,900  Descending Oakland Center
Thu 12:19:00 PM 38.3396 -127.2943 112° Southeast 544 626 38,000 98 Climbing FlightAware Transoceanic
Thu 12:19:06 PM 38.3772 -127.3244 113° Southeast 538 619 38,000  Level Oakland Center
Thu 12:20:00 PM 38.2822 -127.1184 113° Southeast 544 626 38,000 -97 Level FlightAware Transoceanic
Thu 12:20:08 PM 38.3192 -127.1497 113° Southeast 538 619 37,900  Descending Oakland Center
Thu 12:21:00 PM 38.2247 -126.9428 113° Southeast 544 626 38,000  Climbing FlightAware Transoceanic
Thu 12:21:09 PM 38.2631 -126.9742 112° Southeast 538 619 37,900  Descending Oakland Center
Thu 12:22:00 PM 38.1878 -126.8332 113° Southeast 539 620 38,000  Climbing FlightAware Transoceanic
Thu 12:22:11 PM 38.2042 -126.8003 113° Southeast 538 619 37,900  Descending Oakland Center
Thu 12:23:12 PM 38.1350 -126.5919 113° Southeast 537 618 38,000 49 Climbing Oakland Center
Thu 12:24:14 PM 38.0756 -126.4183 113° Southeast 537 618 38,000  Level Oakland Center
Thu 12:25:15 PM 38.0172 -126.2458 113° Southeast 537 618 38,000  Level Oakland Center
Thu 12:26:17 PM 37.9528 -126.0589 114° Southeast 537 618 38,000  Level Oakland Center
Thu 12:27:19 PM 37.8942 -125.8861 113° Southeast 537 618 38,000 98 Level Oakland Center
Thu 12:28:20 PM 37.8342 -125.7136 114° Southeast 537 618 38,200 439 Climbing Oakland Center
Thu 12:29:22 PM 37.7739 -125.5383 113° Southeast 539 620 38,900 390 Climbing Oakland Center
Thu 12:30:23 PM 37.7125 -125.3625 114° Southeast 545 627 39,000  Climbing Oakland Center
Thu 12:31:25 PM 37.6508 -125.1867 114° Southeast 548 631 38,900 -49 Descending Oakland Center
Thu 12:32:26 PM 37.5881 -125.0097 114° Southeast 550 633 38,900 14 Level Oakland Center
Thu 12:38:20 PM 37.2576 -124.0974 114° Southeast 551 634 39,000 14 Climbing FlightAware ADS-B (KSAC)
Thu 12:39:23 PM 37.1476 -123.7984 114° Southeast 547 629 39,000  Level FlightAware ADS-B (KSAC)
Thu 12:39:56 PM 37.1080 -123.6912 114° Southeast 546 628 39,000  Level FlightAware ADS-B (KSAC)
Thu 12:43:31 PM 36.9107 -123.1638 115° Southeast 552 635 39,000  Level FlightAware ADS-B (KSAC)
Thu 12:46:46 PM 36.6534 -122.4890 1000° North 39,000  Level FlightAware ADS-B
Thu 12:46:51 PM 36.6479 -122.4740 116° Southeast 551 634 39,000  Level FlightAware ADS-B
Thu 12:48:38 PM 36.5298 -122.1700 116° Southeast 551 634 39,000  Level FlightAware ADS-B
Thu 12:49:29 PM 36.4797 -122.0522 116° Southeast 550 633 39,000 -53 Level Los Angeles Center
Thu 12:50:32 PM 36.4147 -121.8814 115° Southeast 550 633 38,900 -48 Descending Los Angeles Center
Thu 12:51:34 PM 36.3481 -121.7150 116° Southeast 546 628 38,900 11 Level Los Angeles Center
Thu 12:59:25 PM 35.8114 -120.3758 117° Southeast 535 616 39,000 10 Climbing FlightAware ADS-B
Thu 01:01:56 PM 35.6393 -119.9840 137° Southeast 524 603 39,000 -271 Level FlightAware ADS-B
Thu 01:02:44 PM 35.5412 -119.8874 145° Southeast 519 597 38,100 -1,618 Descending FlightAware ADS-B
Thu 01:03:25 PM 35.4828 -119.8369 145° Southeast 518 596 36,600 -2,400 Descending FlightAware ADS-B
Thu 01:03:59 PM 35.3946 -119.7609 145° Southeast 520 598 35,100 -2,734 Descending FlightAware ADS-B
Thu 01:04:44 PM 35.3291 -119.7046 145° Southeast 525 604 33,000 -2,721 Descending FlightAware ADS-B
Thu 01:05:25 PM 35.2248 -119.6151 145° Southeast 522 601 31,200 -2,447 Descending FlightAware ADS-B
Thu 01:06:00 PM 35.1638 -119.5625 145° Southeast 510 587 29,900 -2,025 Descending FlightAware ADS-B
Thu 01:06:45 PM 35.0846 -119.4950 145° Southeast 496 571 28,500 -1,953 Descending FlightAware ADS-B
Thu 01:07:26 PM 35.0120 -119.4329 145° Southeast 483 556 27,100 -2,025 Descending FlightAware ADS-B
Thu 01:08:05 PM 34.9278 -119.3617 145° Southeast 476 548 25,800 -1,926 Descending FlightAware ADS-B
Thu 01:08:47 PM 34.8684 -119.3114 145° Southeast 469 540 24,500 -2,077 Descending FlightAware ADS-B
Thu 01:09:23 PM 34.7841 -119.2401 145° Southeast 459 528 23,100 -2,023 Descending FlightAware ADS-B
Thu 01:11:39 PM 34.5622 -119.0530 145° Southeast 426 490 18,700 -1,989 Descending FlightAware ADS-B
Thu 01:12:18 PM 34.4941 -118.9962 145° Southeast 417 480 17,300 -2,049 Descending FlightAware ADS-B
Thu 01:13:01 PM 34.4287 -118.9414 145° Southeast 405 466 15,900 -1,976 Descending FlightAware ADS-B
Thu 01:13:40 PM 34.3705 -118.8944 152° Southeast 396 456 14,600 -1,913 Descending FlightAware ADS-B
Thu 01:14:10 PM 34.3177 -118.8669 162° South 390 449 13,700 -1,886 Descending FlightAware ADS-B
Thu 01:14:50 PM 34.2462 -118.8407 163° South 384 442 12,400 -1,280 Descending FlightAware ADS-B
Thu 01:15:25 PM 34.1978 -118.8229 163° South 365 420 12,100 -522 Descending FlightAware ADS-B
Thu 01:16:22 PM 34.1159 -118.7927 163° South 315 362 11,600 -667 Descending FlightAware ADS-B
Thu 01:16:55 PM 34.0596 -118.7682 145° Southeast 308 354 11,100 -1,132 Descending FlightAware ADS-B
Thu 01:17:15 PM 34.0412 -118.7427 119° Southeast 304 350 10,600 -1,440 Descending FlightAware ADS-B
Thu 01:17:20 PM 34.0394 -118.7381 114° Southeast 304 350 10,500 -900 Descending FlightAware ADS-B
Thu 01:17:35 PM 34.0341 -118.7113 96° East 300 345 10,300 -889 Descending FlightAware ADS-B
Thu 01:18:14 PM 34.0284 -118.6494 96° East 294 338 9,700 -1,017 Descending FlightAware ADS-B
Thu 01:18:34 PM 34.0250 -118.6133 97° East 293 337 9,300 -1,024 Descending FlightAware ADS-B
Thu 01:18:55 PM 34.0228 -118.5907 97° East 290 334 9,000 -973 Descending FlightAware ADS-B
Thu 01:19:11 PM 34.0195 -118.5543 96° East 286 329 8,700 -1,161 Descending FlightAware ADS-B
Thu 01:19:26 PM 34.0171 -118.5294 96° East 283 326 8,400 -1,059 Descending FlightAware ADS-B
Thu 01:19:28 PM 34.0174 -118.5322 97° East 283 326 8,400 -1,200 Level FlightAware ADS-B
Thu 01:19:46 PM 34.0142 -118.4988 96° East 283 326 8,000 -1,500 Descending FlightAware ADS-B
Thu 01:19:48 PM 34.0140 -118.4969 96° East 283 326 7,900 -706 Descending FlightAware ADS-B
Thu 01:20:03 PM 34.0123 -118.4783 96° East 277 319 7,800 -375 Descending FlightAware ADS-B
Thu 01:20:20 PM 34.0114 -118.4544 91° East 270 311 7,700 -429 Descending FlightAware ADS-B
Thu 01:20:31 PM 34.0131 -118.4331 82° East 260 299 7,600 -632 Descending FlightAware ADS-B
Thu 01:20:39 PM 34.0146 -118.4204 82° East 255 293 7,500 -600 Descending FlightAware ADS-B
Thu 01:20:51 PM 34.0166 -118.4028 82° East 255 293 7,400 -600 Descending FlightAware ADS-B
Thu 01:20:59 PM 34.0177 -118.3938 82° East 246 283 7,300 -571 Descending FlightAware ADS-B
Thu 01:21:12 PM 34.0197 -118.3757 82° East 243 280 7,200 -571 Descending FlightAware ADS-B
Thu 01:21:20 PM 34.0207 -118.3666 83° East 243 280 7,100 -1,116 Descending FlightAware ADS-B
Thu 01:21:55 PM 34.0257 -118.3185 83° East 243 280 6,400 -1,135 Descending FlightAware ADS-B
Thu 01:21:57 PM 34.0256 -118.3191 82° East 243 280 6,400 -706 Level FlightAware ADS-B
Thu 01:22:12 PM 34.0282 -118.2958 82° East 241 277 6,200 -750 Descending FlightAware ADS-B
Thu 01:22:13 PM 34.0285 -118.2934 82° East 240 276 6,200 -522 Level FlightAware ADS-B
Thu 01:22:35 PM 34.0317 -118.2646 82° East 232 267 6,000 -429 Descending FlightAware ADS-B
Thu 01:22:41 PM 34.0326 -118.2561 82° East 227 261 6,000 -571 Level FlightAware ADS-B
Thu 01:22:56 PM 34.0343 -118.2404 82° East 218 251 5,800 -960 Descending FlightAware ADS-B
Thu 01:23:06 PM 34.0355 -118.2292 82° East 213 245 5,600 -1,263 Descending FlightAware ADS-B
Thu 01:23:15 PM 34.0368 -118.2176 83° East 206 237 5,400 -1,385 Descending FlightAware ADS-B
Thu 01:23:19 PM 34.0373 -118.2133 82° East 205 236 5,300 -1,800 Descending FlightAware ADS-B
Thu 01:23:35 PM 34.0391 -118.1943 85° East 198 228 4,800 -1,909 Descending FlightAware ADS-B
Thu 01:23:41 PM 34.0391 -118.1873 94° East 196 226 4,600 -1,800 Descending FlightAware ADS-B
Thu 01:23:55 PM 34.0348 -118.1737 127° Southeast 193 222 4,200 -1,787 Descending FlightAware ADS-B
Thu 01:24:28 PM 34.0079 -118.1652 192° South 190 219 3,200 -1,444 Descending FlightAware ADS-B
Thu 01:24:49 PM 33.9938 -118.1758 229° Southwest 192 221 2,900 -900 Descending FlightAware ADS-B
Thu 01:25:08 PM 33.9850 -118.1915 241° Southwest 189 217 2,600 -833 Descending FlightAware ADS-B
Thu 01:26:01 PM 33.9704 -118.2463 261° West 182 209 1,900 -575 Descending FlightAware ADS-B
Thu 01:26:21 PM 33.9681 -118.2655 261° West 185 213 1,900  Level FlightAware ADS-B
Thu 01:26:40 PM 33.9653 -118.2854 261° West 170 196 1,900 -600 Level FlightAware ADS-B
Thu 01:27:21 PM 33.9607 -118.3198 261° West 151 174 1,300 -787 Descending FlightAware ADS-B
Thu 01:27:41 PM 33.9587 -118.3371 264° West 148 170 1,100 -577 Descending FlightAware ADS-B
Thu 01:28:13 PM 33.9563 -118.3615 263° West 187 215 800 -792 Descending FlightAware ADS-B
Thu 01:28:34 PM 33.9548 -118.3759 263° West 147 169 400 -1,143 Descending FlightAware ADS-B

Login

Don't have an account? Register now (free) for customized features, flight alerts, and more!